Ringling, MT (59642)

01:44 PM MDT on September 18, 2014 (GMT -0600)
RAWS WHITE SULPHUR SPRING MT US | Change Station
CLOSE
Current Station
Personal Weather Stations
Location: White Sulphur Springs, MT
Elevation: 5060 ft
Nearby Weather Stations

Elev 5060 ft 46.53 °N, 110.89 °W | Updated 47 minutes ago

Berawan
Berawan
67 °F
Feels Like 67 °F
N
14
Angin Variable Angin from Arah Selatan
Gusts 23.0 mph

Siang Ini
High -- | Low -- °F
--% Chance of Precip.
Yesterday
High -- | Low -- °F
Precip. -- Inch
7:05 AM 7:28 PM
Waning Crescent, 25% visible
Tekanan 29.84 Inch
Jarak Pandang 10.0 Mil
Awan Berawan 9000 ft
Titik Embun 54 °F
Kelembaban 62%
Rainfall 0.01 Inch
Snow Depth 1 in , 0 in , 0 in
UV 2 out of 12
Pollen 6.20 out of 12
Air Quality Not available.
Flu Activity Not available.
METAR KBZN 181856Z 00000KT 10SM OVC090 17/14 A2990 RMK AO2 RAB03E32 SLP103 P0000 T01670139

More Conditions Fewer Conditions

Tekanan 29.84 Inch
Jarak Pandang 10.0 Mil
Awan Berawan 9000 ft
Titik Embun 54 °F
Kelembaban 62%
Rainfall 0.01 Inch
Snow Depth 1 in , 0 in , 0 in
UV 2 out of 12
Pollen 6.20 out of 12
Air Quality Not available.
Flu Activity Not available.
METAR KBZN 181856Z 00000KT 10SM OVC090 17/14 A2990 RMK AO2 RAB03E32 SLP103 P0000 T01670139

More Conditions Fewer Conditions

10-Day Weather Forecast

Almanac

Astronomi

Sep. 18, 2014 Rise Set
Actual Time 7:05 AM MDT 7:28 PM MDT
Civil Twilight 6:35 AM MDT 7:58 PM MDT
Nautical Twilight 5:59 AM MDT 8:34 PM MDT
Astronomical Twilight 5:22 AM MDT 9:11 PM MDT
Moon 1:47 AM MDT 4:34 PM MDT
Length Of Visible Light 13h 23m
Lama Satu Hari
12h 23m
Tomorrow will be 3m 15s shorter.
Waning Crescent, 25% of the Moon is Illuminated
Siang Ini
Waning Crescent
Sep 24
New
Oct 1
Triwulan Pertama
Oct 8
Bulan Purnama
Oct 15
Kuartil Terakhir

Today's Extremes

State Highs State Lows

Community

WunderPhotos

Upload Photos

1,754,421 photos uploaded!

WunderBlogs® & News

By Dr. Jeff Masters
Director of Meteorology, Weather Underground
By Kari Strenfel
Meteorologist, Weather Underground
By Christopher C. Burt
Weather Historian, Weather Underground
September 18, 2014
September 18, 2014
September 18, 2014

Nearby

Snow Depth

Station Depth Elevation
Mule Creek 1 in 8300 ft
Lower Twin 0 in 7900 ft
Tizer Basin 0 in 6840 ft
Lemhi Ridge 0 in 8100 ft
Badger Pass 0 in 6900 ft

Earthquake Activity

City Distance Mag. Time & Date
No recent earthquake activity has been reported nearby.
Minimum magnitude displayed is 2.5.

Coastal Water Temperatures

Lokasi Temperatur
No Stations Reporting

Nearby Weather Stations